sensor_id;sensor_type;location;lat;lon;timestamp;noise_LAeq;noise_LA_min;noise_LA_max;noise_LA01;noise_LA95
66459;Laerm;56836;52.570;4.692;2022-07-12T00:00:09;43.06;42.10;44.45;;
66459;Laerm;56836;52.570;4.692;2022-07-12T00:00:19;43.00;41.82;44.24;;
66459;Laerm;56836;52.570;4.692;2022-07-12T00:00:45;42.92;41.93;43.70;;
66459;Laerm;56836;52.570;4.692;2022-07-12T00:00:55;42.90;41.80;43.89;;
66459;Laerm;56836;52.570;4.692;2022-07-12T00:01:06;42.91;41.81;44.13;;
66459;Laerm;56836;52.570;4.692;2022-07-12T00:01:19;42.90;42.05;43.91;;
66459;Laerm;56836;52.570;4.692;2022-07-12T00:01:45;43.00;41.97;43.88;;
66459;Laerm;56836;52.570;4.692;2022-07-12T00:01:55;42.96;42.06;43.73;;
66459;Laerm;56836;52.570;4.692;2022-07-12T00:02:06;42.95;42.08;43.97;;
66459;Laerm;56836;52.570;4.692;2022-07-12T00:02:17;42.97;42.05;43.92;;
66459;Laerm;56836;52.570;4.692;2022-07-12T00:02:28;43.08;42.08;43.94;;
66459;Laerm;56836;52.570;4.692;2022-07-12T00:02:38;42.96;42.18;43.90;;
66459;Laerm;56836;52.570;4.692;2022-07-12T00:02:48;42.99;41.96;43.76;;
66459;Laerm;56836;52.570;4.692;2022-07-12T00:03:05;43.06;42.25;44.08;;
66459;Laerm;56836;52.570;4.692;2022-07-12T00:03:15;42.98;42.07;43.97;;
66459;Laerm;56836;52.570;4.692;2022-07-12T00:03:25;42.97;42.00;43.89;;
66459;Laerm;56836;52.570;4.692;2022-07-12T00:03:36;42.93;41.90;43.70;;
66459;Laerm;56836;52.570;4.692;2022-07-12T00:04:29;42.92;41.92;44.39;;
66459;Laerm;56836;52.570;4.692;2022-07-12T00:04:39;42.97;41.90;43.76;;
66459;Laerm;56836;52.570;4.692;2022-07-12T00:04:49;43.02;42.10;43.70;;
66459;Laerm;56836;52.570;4.692;2022-07-12T00:05:03;42.92;42.19;43.82;;
66459;Laerm;56836;52.570;4.692;2022-07-12T00:05:14;43.03;41.99;44.34;;
66459;Laerm;56836;52.570;4.692;2022-07-12T00:05:24;43.01;42.05;43.82;;
66459;Laerm;56836;52.570;4.692;2022-07-12T00:05:35;43.16;42.30;44.81;;
66459;Laerm;56836;52.570;4.692;2022-07-12T00:06:03;49.02;42.86;58.95;;
66459;Laerm;56836;52.570;4.692;2022-07-12T00:06:13;43.08;41.99;44.26;;
66459;Laerm;56836;52.570;4.692;2022-07-12T00:06:24;42.91;42.06;44.45;;
66459;Laerm;56836;52.570;4.692;2022-07-12T00:06:34;43.00;41.90;43.86;;
66459;Laerm;56836;52.570;4.692;2022-07-12T00:06:52;43.03;42.24;43.98;;
66459;Laerm;56836;52.570;4.692;2022-07-12T00:07:03;42.97;41.74;43.93;;
66459;Laerm;56836;52.570;4.692;2022-07-12T00:07:14;42.98;42.13;43.77;;
66459;Laerm;56836;52.570;4.692;2022-07-12T00:07:24;43.03;42.29;45.64;;
66459;Laerm;56836;52.570;4.692;2022-07-12T00:07:35;43.00;41.78;43.77;;
66459;Laerm;56836;52.570;4.692;2022-07-12T00:07:45;43.13;42.02;44.12;;
66459;Laerm;56836;52.570;4.692;2022-07-12T00:07:55;43.17;41.97;44.29;;
66459;Laerm;56836;52.570;4.692;2022-07-12T00:08:06;43.48;42.54;44.80;;
66459;Laerm;56836;52.570;4.692;2022-07-12T00:08:17;43.42;42.47;49.91;;
66459;Laerm;56836;52.570;4.692;2022-07-12T00:08:28;43.32;42.13;45.22;;
66459;Laerm;56836;52.570;4.692;2022-07-12T00:08:38;43.30;42.37;44.83;;
66459;Laerm;56836;52.570;4.692;2022-07-12T00:08:48;43.19;42.25;44.36;;
66459;Laerm;56836;52.570;4.692;2022-07-12T00:09:06;43.21;42.19;44.33;;
66459;Laerm;56836;52.570;4.692;2022-07-12T00:09:16;43.15;42.17;44.00;;
66459;Laerm;56836;52.570;4.692;2022-07-12T00:09:27;43.18;42.20;44.08;;
66459;Laerm;56836;52.570;4.692;2022-07-12T00:09:37;43.15;42.26;43.99;;
66459;Laerm;56836;52.570;4.692;2022-07-12T00:09:54;43.09;42.12;43.96;;
66459;Laerm;56836;52.570;4.692;2022-07-12T00:10:05;43.17;42.32;43.99;;
66459;Laerm;56836;52.570;4.692;2022-07-12T00:10:15;43.11;42.14;43.93;;
66459;Laerm;56836;52.570;4.692;2022-07-12T00:10:26;43.16;42.28;45.52;;
66459;Laerm;56836;52.570;4.692;2022-07-12T00:10:36;43.75;42.48;46.98;;
66459;Laerm;56836;52.570;4.692;2022-07-12T00:10:47;48.12;42.60;55.88;;
66459;Laerm;56836;52.570;4.692;2022-07-12T00:10:57;43.17;42.22;44.17;;
66459;Laerm;56836;52.570;4.692;2022-07-12T00:11:08;43.04;41.86;44.12;;
66459;Laerm;56836;52.570;4.692;2022-07-12T00:11:19;43.15;42.12;45.82;;
66459;Laerm;56836;52.570;4.692;2022-07-12T00:11:39;43.07;41.95;43.85;;
66459;Laerm;56836;52.570;4.692;2022-07-12T00:11:49;43.12;42.01;44.32;;
66459;Laerm;56836;52.570;4.692;2022-07-12T00:11:59;51.36;43.27;59.80;;
66459;Laerm;56836;52.570;4.692;2022-07-12T00:12:11;43.51;42.06;45.66;;
66459;Laerm;56836;52.570;4.692;2022-07-12T00:12:21;42.98;42.10;43.89;;
66459;Laerm;56836;52.570;4.692;2022-07-12T00:12:32;42.98;42.02;43.97;;
66459;Laerm;56836;52.570;4.692;2022-07-12T00:12:42;42.96;41.97;43.96;;
66459;Laerm;56836;52.570;4.692;2022-07-12T00:12:53;42.97;41.85;43.74;;
66459;Laerm;56836;52.570;4.692;2022-07-12T00:13:04;43.00;42.14;43.80;;
66459;Laerm;56836;52.570;4.692;2022-07-12T00:13:29;43.01;42.17;43.80;;
66459;Laerm;56836;52.570;4.692;2022-07-12T00:13:40;43.08;42.10;46.19;;
66459;Laerm;56836;52.570;4.692;2022-07-12T00:13:51;43.09;41.97;44.05;;
66459;Laerm;56836;52.570;4.692;2022-07-12T00:14:02;43.13;42.15;43.91;;
66459;Laerm;56836;52.570;4.692;2022-07-12T00:14:13;43.03;42.15;43.74;;
66459;Laerm;56836;52.570;4.692;2022-07-12T00:14:24;43.06;42.09;43.90;;
66459;Laerm;56836;52.570;4.692;2022-07-12T00:14:35;45.73;42.50;52.97;;
66459;Laerm;56836;52.570;4.692;2022-07-12T00:14:45;49.03;42.50;59.40;;
66459;Laerm;56836;52.570;4.692;2022-07-12T00:14:56;43.07;42.09;43.91;;
66459;Laerm;56836;52.570;4.692;2022-07-12T00:15:06;43.08;42.18;43.94;;
66459;Laerm;56836;52.570;4.692;2022-07-12T00:15:17;43.07;42.11;43.84;;
66459;Laerm;56836;52.570;4.692;2022-07-12T00:15:27;43.01;42.23;43.89;;
66459;Laerm;56836;52.570;4.692;2022-07-12T00:15:38;42.97;42.01;43.69;;
66459;Laerm;56836;52.570;4.692;2022-07-12T00:15:48;43.12;41.93;44.13;;
66459;Laerm;56836;52.570;4.692;2022-07-12T00:15:59;43.04;42.10;43.85;;
66459;Laerm;56836;52.570;4.692;2022-07-12T00:16:09;43.01;42.13;43.88;;
66459;Laerm;56836;52.570;4.692;2022-07-12T00:16:20;43.07;42.02;43.84;;
66459;Laerm;56836;52.570;4.692;2022-07-12T00:16:32;42.98;42.10;43.96;;
66459;Laerm;56836;52.570;4.692;2022-07-12T00:16:42;43.07;42.13;44.04;;
66459;Laerm;56836;52.570;4.692;2022-07-12T00:16:53;43.00;42.06;43.87;;
66459;Laerm;56836;52.570;4.692;2022-07-12T00:17:03;43.90;42.27;48.13;;
66459;Laerm;56836;52.570;4.692;2022-07-12T00:17:14;50.59;43.11;61.15;;
66459;Laerm;56836;52.570;4.692;2022-07-12T00:17:24;45.04;42.58;48.86;;
66459;Laerm;56836;52.570;4.692;2022-07-12T00:17:36;56.59;46.74;62.18;;
66459;Laerm;56836;52.570;4.692;2022-07-12T00:17:48;57.75;51.89;61.83;;
66459;Laerm;56836;52.570;4.692;2022-07-12T00:17:58;50.39;45.72;54.64;;
66459;Laerm;56836;52.570;4.692;2022-07-12T00:18:09;45.90;43.99;48.77;;
66459;Laerm;56836;52.570;4.692;2022-07-12T00:18:20;43.96;42.72;45.81;;
66459;Laerm;56836;52.570;4.692;2022-07-12T00:18:30;43.30;42.32;44.42;;
66459;Laerm;56836;52.570;4.692;2022-07-12T00:18:41;43.09;42.14;43.97;;
66459;Laerm;56836;52.570;4.692;2022-07-12T00:18:51;43.25;42.19;44.50;;
66459;Laerm;56836;52.570;4.692;2022-07-12T00:19:02;52.57;43.01;61.14;;
66459;Laerm;56836;52.570;4.692;2022-07-12T00:19:12;44.54;42.40;51.15;;
66459;Laerm;56836;52.570;4.692;2022-07-12T00:19:22;43.00;42.11;43.69;;
66459;Laerm;56836;52.570;4.692;2022-07-12T00:19:33;43.00;41.57;43.82;;
66459;Laerm;56836;52.570;4.692;2022-07-12T00:19:43;42.90;42.05;43.81;;
66459;Laerm;56836;52.570;4.692;2022-07-12T00:19:53;42.91;42.02;43.93;;
66459;Laerm;56836;52.570;4.692;2022-07-12T00:20:04;42.94;42.12;44.31;;
66459;Laerm;56836;52.570;4.692;2022-07-12T00:20:14;42.90;41.99;43.61;;
66459;Laerm;56836;52.570;4.692;2022-07-12T00:20:25;42.91;41.70;43.63;;
66459;Laerm;56836;52.570;4.692;2022-07-12T00:20:36;42.94;41.92;44.01;;
66459;Laerm;56836;52.570;4.692;2022-07-12T00:20:46;42.94;42.09;43.81;;
66459;Laerm;56836;52.570;4.692;2022-07-12T00:20:57;42.93;41.96;44.32;;
66459;Laerm;56836;52.570;4.692;2022-07-12T00:21:07;42.96;42.07;43.90;;
66459;Laerm;56836;52.570;4.692;2022-07-12T00:21:18;42.98;42.05;43.93;;
66459;Laerm;56836;52.570;4.692;2022-07-12T00:21:41;42.99;41.96;43.78;;
66459;Laerm;56836;52.570;4.692;2022-07-12T00:21:52;42.91;41.85;44.10;;
66459;Laerm;56836;52.570;4.692;2022-07-12T00:22:02;42.93;41.94;44.32;;
66459;Laerm;56836;52.570;4.692;2022-07-12T00:22:12;42.95;41.91;43.81;;
66459;Laerm;56836;52.570;4.692;2022-07-12T00:22:23;43.03;42.31;43.82;;
66459;Laerm;56836;52.570;4.692;2022-07-12T00:22:43;42.93;42.02;43.89;;
66459;Laerm;56836;52.570;4.692;2022-07-12T00:22:56;42.95;42.03;43.79;;
66459;Laerm;56836;52.570;4.692;2022-07-12T00:23:06;42.98;42.16;43.78;;
66459;Laerm;56836;52.570;4.692;2022-07-12T00:23:17;42.98;41.63;43.86;;
66459;Laerm;56836;52.570;4.692;2022-07-12T00:23:27;42.93;42.06;43.72;;
66459;Laerm;56836;52.570;4.692;2022-07-12T00:23:38;42.93;42.07;43.62;;
66459;Laerm;56836;52.570;4.692;2022-07-12T00:23:48;42.94;41.68;43.75;;
66459;Laerm;56836;52.570;4.692;2022-07-12T00:23:59;42.89;42.02;43.75;;
66459;Laerm;56836;52.570;4.692;2022-07-12T00:24:09;42.94;42.04;43.82;;
66459;Laerm;56836;52.570;4.692;2022-07-12T00:24:19;42.98;41.90;43.92;;
66459;Laerm;56836;52.570;4.692;2022-07-12T00:24:31;44.19;42.53;47.00;;
66459;Laerm;56836;52.570;4.692;2022-07-12T00:24:41;50.85;43.85;58.46;;
66459;Laerm;56836;52.570;4.692;2022-07-12T00:24:52;64.43;52.58;69.10;;
66459;Laerm;56836;52.570;4.692;2022-07-12T00:25:17;62.69;55.22;67.32;;
66459;Laerm;56836;52.570;4.692;2022-07-12T00:25:28;52.10;43.40;58.37;;
66459;Laerm;56836;52.570;4.692;2022-07-12T00:25:38;43.64;42.55;45.57;;
66459;Laerm;56836;52.570;4.692;2022-07-12T00:25:49;43.22;41.96;44.93;;
66459;Laerm;56836;52.570;4.692;2022-07-12T00:25:59;42.99;42.10;43.77;;
66459;Laerm;56836;52.570;4.692;2022-07-12T00:26:14;42.95;41.93;44.06;;
66459;Laerm;56836;52.570;4.692;2022-07-12T00:26:57;42.98;41.92;44.49;;
66459;Laerm;56836;52.570;4.692;2022-07-12T00:27:07;42.92;42.03;43.69;;
66459;Laerm;56836;52.570;4.692;2022-07-12T00:27:19;42.93;41.90;43.85;;
66459;Laerm;56836;52.570;4.692;2022-07-12T00:27:29;42.93;41.88;43.74;;
66459;Laerm;56836;52.570;4.692;2022-07-12T00:27:40;42.92;42.15;43.69;;
66459;Laerm;56836;52.570;4.692;2022-07-12T00:27:56;42.92;41.98;43.70;;
66459;Laerm;56836;52.570;4.692;2022-07-12T00:28:07;42.89;41.97;43.76;;
66459;Laerm;56836;52.570;4.692;2022-07-12T00:28:17;42.91;42.04;43.68;;
66459;Laerm;56836;52.570;4.692;2022-07-12T00:28:29;42.95;41.98;43.91;;
66459;Laerm;56836;52.570;4.692;2022-07-12T00:28:40;43.26;41.96;44.88;;
66459;Laerm;56836;52.570;4.692;2022-07-12T00:28:50;46.51;43.36;51.99;;
66459;Laerm;56836;52.570;4.692;2022-07-12T00:29:03;54.19;46.67;60.19;;
66459;Laerm;56836;52.570;4.692;2022-07-12T00:29:13;58.60;53.54;62.39;;
66459;Laerm;56836;52.570;4.692;2022-07-12T00:29:24;55.27;49.97;60.11;;
66459;Laerm;56836;52.570;4.692;2022-07-12T00:29:35;48.22;43.75;54.38;;
66459;Laerm;56836;52.570;4.692;2022-07-12T00:29:46;44.44;43.05;47.30;;
66459;Laerm;56836;52.570;4.692;2022-07-12T00:29:56;43.30;42.20;44.04;;
66459;Laerm;56836;52.570;4.692;2022-07-12T00:30:07;43.12;42.47;43.93;;
66459;Laerm;56836;52.570;4.692;2022-07-12T00:30:35;43.04;41.85;43.91;;
66459;Laerm;56836;52.570;4.692;2022-07-12T00:30:45;43.00;42.01;43.86;;
66459;Laerm;56836;52.570;4.692;2022-07-12T00:30:55;42.95;41.88;43.76;;
66459;Laerm;56836;52.570;4.692;2022-07-12T00:31:06;42.99;42.25;43.76;;
66459;Laerm;56836;52.570;4.692;2022-07-12T00:31:17;43.01;42.15;44.05;;
66459;Laerm;56836;52.570;4.692;2022-07-12T00:31:27;43.00;42.02;43.81;;
66459;Laerm;56836;52.570;4.692;2022-07-12T00:31:37;42.99;42.10;43.73;;
66459;Laerm;56836;52.570;4.692;2022-07-12T00:31:48;43.04;41.97;44.21;;
66459;Laerm;56836;52.570;4.692;2022-07-12T00:31:58;42.89;41.70;43.79;;
66459;Laerm;56836;52.570;4.692;2022-07-12T00:32:09;42.93;42.13;43.70;;
66459;Laerm;56836;52.570;4.692;2022-07-12T00:32:20;42.86;42.07;43.78;;
66459;Laerm;56836;52.570;4.692;2022-07-12T00:32:31;42.85;41.75;43.71;;
66459;Laerm;56836;52.570;4.692;2022-07-12T00:32:41;42.87;41.86;43.69;;
66459;Laerm;56836;52.570;4.692;2022-07-12T00:32:52;42.87;41.96;43.83;;
66459;Laerm;56836;52.570;4.692;2022-07-12T00:33:02;42.94;42.15;45.35;;
66459;Laerm;56836;52.570;4.692;2022-07-12T00:33:20;42.94;41.85;43.75;;
66459;Laerm;56836;52.570;4.692;2022-07-12T00:33:30;43.00;42.18;43.95;;
66459;Laerm;56836;52.570;4.692;2022-07-12T00:33:41;43.00;41.94;43.79;;
66459;Laerm;56836;52.570;4.692;2022-07-12T00:33:51;43.03;41.85;43.92;;
66459;Laerm;56836;52.570;4.692;2022-07-12T00:34:04;43.01;42.13;43.78;;
66459;Laerm;56836;52.570;4.692;2022-07-12T00:34:14;42.96;42.01;43.86;;
66459;Laerm;56836;52.570;4.692;2022-07-12T00:34:25;42.95;42.09;43.95;;
66459;Laerm;56836;52.570;4.692;2022-07-12T00:34:35;42.90;42.01;43.89;;
66459;Laerm;56836;52.570;4.692;2022-07-12T00:35:00;42.89;41.91;43.91;;
66459;Laerm;56836;52.570;4.692;2022-07-12T00:35:12;42.92;41.86;48.45;;
66459;Laerm;56836;52.570;4.692;2022-07-12T00:35:23;42.88;42.02;43.86;;
66459;Laerm;56836;52.570;4.692;2022-07-12T00:35:37;42.92;41.99;43.89;;
66459;Laerm;56836;52.570;4.692;2022-07-12T00:35:48;42.86;42.01;43.77;;
66459;Laerm;56836;52.570;4.692;2022-07-12T00:35:58;43.00;42.05;43.92;;
66459;Laerm;56836;52.570;4.692;2022-07-12T00:36:14;42.91;41.96;43.88;;
66459;Laerm;56836;52.570;4.692;2022-07-12T00:36:24;42.90;42.05;43.77;;
66459;Laerm;56836;52.570;4.692;2022-07-12T00:36:35;42.96;42.11;43.75;;
66459;Laerm;56836;52.570;4.692;2022-07-12T00:36:47;42.93;42.02;43.83;;
66459;Laerm;56836;52.570;4.692;2022-07-12T00:36:58;42.99;42.13;43.95;;
66459;Laerm;56836;52.570;4.692;2022-07-12T00:37:08;42.95;42.01;43.61;;
66459;Laerm;56836;52.570;4.692;2022-07-12T00:38:10;44.66;41.82;57.69;;
66459;Laerm;56836;52.570;4.692;2022-07-12T00:38:21;42.91;41.80;43.70;;
66459;Laerm;56836;52.570;4.692;2022-07-12T00:38:32;42.89;42.15;43.79;;
66459;Laerm;56836;52.570;4.692;2022-07-12T00:38:43;42.88;41.84;43.75;;
66459;Laerm;56836;52.570;4.692;2022-07-12T00:38:53;42.86;41.75;43.60;;
66459;Laerm;56836;52.570;4.692;2022-07-12T00:39:05;42.94;42.07;43.68;;
66459;Laerm;56836;52.570;4.692;2022-07-12T00:39:15;42.92;42.14;43.85;;
66459;Laerm;56836;52.570;4.692;2022-07-12T00:39:25;42.94;42.01;43.73;;
66459;Laerm;56836;52.570;4.692;2022-07-12T00:39:37;42.97;42.25;46.63;;
66459;Laerm;56836;52.570;4.692;2022-07-12T00:39:47;42.84;41.92;43.63;;
66459;Laerm;56836;52.570;4.692;2022-07-12T00:39:58;42.88;41.87;43.71;;
66459;Laerm;56836;52.570;4.692;2022-07-12T00:40:09;42.88;41.84;43.67;;
66459;Laerm;56836;52.570;4.692;2022-07-12T00:40:45;44.31;41.96;55.22;;
66459;Laerm;56836;52.570;4.692;2022-07-12T00:40:56;50.49;42.26;60.95;;
66459;Laerm;56836;52.570;4.692;2022-07-12T00:41:06;51.90;42.72;63.10;;
66459;Laerm;56836;52.570;4.692;2022-07-12T00:41:17;44.03;42.06;48.17;;
66459;Laerm;56836;52.570;4.692;2022-07-12T00:41:28;43.00;42.03;43.89;;
66459;Laerm;56836;52.570;4.692;2022-07-12T00:41:38;45.82;42.08;54.85;;
66459;Laerm;56836;52.570;4.692;2022-07-12T00:41:49;52.96;42.70;63.55;;
66459;Laerm;56836;52.570;4.692;2022-07-12T00:42:00;43.11;42.09;44.34;;
66459;Laerm;56836;52.570;4.692;2022-07-12T00:42:11;43.00;42.18;43.65;;
66459;Laerm;56836;52.570;4.692;2022-07-12T00:42:21;43.00;42.07;43.79;;
66459;Laerm;56836;52.570;4.692;2022-07-12T00:42:31;42.99;42.03;43.92;;
66459;Laerm;56836;52.570;4.692;2022-07-12T00:42:43;42.97;41.99;44.03;;
66459;Laerm;56836;52.570;4.692;2022-07-12T00:42:53;43.00;42.08;43.73;;
66459;Laerm;56836;52.570;4.692;2022-07-12T00:43:03;42.97;41.90;43.80;;
66459;Laerm;56836;52.570;4.692;2022-07-12T00:43:14;42.94;42.12;43.81;;
66459;Laerm;56836;52.570;4.692;2022-07-12T00:43:25;42.94;41.89;43.83;;
66459;Laerm;56836;52.570;4.692;2022-07-12T00:43:36;42.93;42.00;43.62;;
66459;Laerm;56836;52.570;4.692;2022-07-12T00:43:46;42.86;41.90;43.78;;
66459;Laerm;56836;52.570;4.692;2022-07-12T00:43:56;44.13;42.30;50.14;;
66459;Laerm;56836;52.570;4.692;2022-07-12T00:44:14;46.59;42.79;53.36;;
66459;Laerm;56836;52.570;4.692;2022-07-12T00:44:24;42.97;42.03;43.87;;
66459;Laerm;56836;52.570;4.692;2022-07-12T00:44:36;42.87;41.90;43.74;;
66459;Laerm;56836;52.570;4.692;2022-07-12T00:44:47;42.88;42.06;43.78;;
66459;Laerm;56836;52.570;4.692;2022-07-12T00:44:59;42.87;41.85;43.71;;
66459;Laerm;56836;52.570;4.692;2022-07-12T00:45:10;42.89;42.02;44.01;;
66459;Laerm;56836;52.570;4.692;2022-07-12T00:45:20;42.89;41.94;43.67;;
66459;Laerm;56836;52.570;4.692;2022-07-12T00:45:42;42.89;42.13;43.49;;
66459;Laerm;56836;52.570;4.692;2022-07-12T00:45:52;42.90;41.95;43.85;;
66459;Laerm;56836;52.570;4.692;2022-07-12T00:46:03;42.89;41.97;43.87;;
66459;Laerm;56836;52.570;4.692;2022-07-12T00:46:26;42.89;41.88;43.84;;
66459;Laerm;56836;52.570;4.692;2022-07-12T00:46:37;42.88;41.83;43.76;;
66459;Laerm;56836;52.570;4.692;2022-07-12T00:46:47;42.92;41.86;43.82;;
66459;Laerm;56836;52.570;4.692;2022-07-12T00:47:50;42.87;41.70;43.73;;
66459;Laerm;56836;52.570;4.692;2022-07-12T00:48:24;42.83;41.85;43.73;;
66459;Laerm;56836;52.570;4.692;2022-07-12T00:48:34;42.87;41.63;43.67;;
66459;Laerm;56836;52.570;4.692;2022-07-12T00:48:56;42.91;42.18;43.83;;
66459;Laerm;56836;52.570;4.692;2022-07-12T00:49:07;42.87;41.91;43.81;;
66459;Laerm;56836;52.570;4.692;2022-07-12T00:49:17;42.91;41.93;43.73;;
66459;Laerm;56836;52.570;4.692;2022-07-12T00:49:30;42.87;41.84;43.66;;
66459;Laerm;56836;52.570;4.692;2022-07-12T00:49:41;42.87;41.89;43.72;;
66459;Laerm;56836;52.570;4.692;2022-07-12T00:49:51;42.90;42.18;43.63;;
66459;Laerm;56836;52.570;4.692;2022-07-12T00:50:03;42.95;42.00;43.98;;
66459;Laerm;56836;52.570;4.692;2022-07-12T00:50:16;42.97;41.90;43.82;;
66459;Laerm;56836;52.570;4.692;2022-07-12T00:50:27;42.90;42.00;46.25;;
66459;Laerm;56836;52.570;4.692;2022-07-12T00:50:37;42.87;41.88;44.03;;
66459;Laerm;56836;52.570;4.692;2022-07-12T00:50:48;42.88;41.97;43.83;;
66459;Laerm;56836;52.570;4.692;2022-07-12T00:51:00;42.88;41.72;43.64;;
66459;Laerm;56836;52.570;4.692;2022-07-12T00:51:10;42.87;41.70;43.66;;
66459;Laerm;56836;52.570;4.692;2022-07-12T00:51:21;42.91;42.04;43.78;;
66459;Laerm;56836;52.570;4.692;2022-07-12T00:51:31;42.86;42.03;43.59;;
66459;Laerm;56836;52.570;4.692;2022-07-12T00:51:44;42.92;42.00;43.79;;
66459;Laerm;56836;52.570;4.692;2022-07-12T00:51:55;43.19;42.11;53.49;;
66459;Laerm;56836;52.570;4.692;2022-07-12T00:52:05;42.88;42.05;43.72;;
66459;Laerm;56836;52.570;4.692;2022-07-12T00:52:16;42.91;42.09;43.84;;
66459;Laerm;56836;52.570;4.692;2022-07-12T00:52:31;42.89;42.08;43.67;;
66459;Laerm;56836;52.570;4.692;2022-07-12T00:52:43;42.90;41.89;44.13;;
66459;Laerm;56836;52.570;4.692;2022-07-12T00:52:54;42.96;41.84;44.97;;
66459;Laerm;56836;52.570;4.692;2022-07-12T00:53:05;42.86;41.86;43.79;;
66459;Laerm;56836;52.570;4.692;2022-07-12T00:53:33;51.57;42.07;63.79;;
66459;Laerm;56836;52.570;4.692;2022-07-12T00:53:44;43.19;41.88;44.53;;
66459;Laerm;56836;52.570;4.692;2022-07-12T00:53:56;42.96;42.08;43.97;;
66459;Laerm;56836;52.570;4.692;2022-07-12T00:54:09;55.01;42.44;68.30;;
66459;Laerm;56836;52.570;4.692;2022-07-12T00:54:20;43.72;42.97;44.64;;
66459;Laerm;56836;52.570;4.692;2022-07-12T00:54:30;45.73;43.06;50.23;;
66459;Laerm;56836;52.570;4.692;2022-07-12T00:54:40;53.66;47.02;58.78;;
66459;Laerm;56836;52.570;4.692;2022-07-12T00:54:51;57.86;54.85;60.78;;
66459;Laerm;56836;52.570;4.692;2022-07-12T00:55:02;57.10;51.33;63.05;;
66459;Laerm;56836;52.570;4.692;2022-07-12T00:55:12;48.83;44.53;54.35;;
66459;Laerm;56836;52.570;4.692;2022-07-12T00:55:23;44.46;43.04;46.46;;
66459;Laerm;56836;52.570;4.692;2022-07-12T00:55:55;43.06;41.98;44.06;;
66459;Laerm;56836;52.570;4.692;2022-07-12T00:56:05;42.96;42.10;43.96;;
66459;Laerm;56836;52.570;4.692;2022-07-12T00:56:16;43.00;42.04;43.79;;
66459;Laerm;56836;52.570;4.692;2022-07-12T00:56:58;48.50;42.51;61.31;;
66459;Laerm;56836;52.570;4.692;2022-07-12T00:57:09;43.29;42.31;44.26;;
66459;Laerm;56836;52.570;4.692;2022-07-12T00:57:19;43.27;42.09;44.17;;
66459;Laerm;56836;52.570;4.692;2022-07-12T00:58:03;43.01;41.91;44.31;;
66459;Laerm;56836;52.570;4.692;2022-07-12T00:58:13;42.91;42.14;43.86;;
66459;Laerm;56836;52.570;4.692;2022-07-12T00:58:24;42.89;41.58;43.80;;
66459;Laerm;56836;52.570;4.692;2022-07-12T00:58:37;42.90;41.96;43.78;;
66459;Laerm;56836;52.570;4.692;2022-07-12T00:58:47;42.96;42.02;43.90;;
66459;Laerm;56836;52.570;4.692;2022-07-12T00:58:57;42.88;41.96;43.82;;
66459;Laerm;56836;52.570;4.692;2022-07-12T00:59:08;47.68;42.15;57.47;;
66459;Laerm;56836;52.570;4.692;2022-07-12T00:59:34;44.13;41.92;49.05;;
66459;Laerm;56836;52.570;4.692;2022-07-12T00:59:44;42.94;41.89;44.46;;
66459;Laerm;56836;52.570;4.692;2022-07-12T00:59:54;43.00;42.23;43.78;;
66459;Laerm;56836;52.570;4.692;2022-07-12T01:00:06;42.97;42.04;43.91;;
66459;Laerm;56836;52.570;4.692;2022-07-12T01:00:25;43.06;41.97;44.76;;
66459;Laerm;56836;52.570;4.692;2022-07-12T01:00:36;42.95;42.02;43.68;;
66459;Laerm;56836;52.570;4.692;2022-07-12T01:00:46;42.94;41.93;43.82;;
66459;Laerm;56836;52.570;4.692;2022-07-12T01:00:57;42.93;41.82;43.68;;
66459;Laerm;56836;52.570;4.692;2022-07-12T01:01:20;42.98;41.89;43.86;;
66459;Laerm;56836;52.570;4.692;2022-07-12T01:01:31;43.03;41.78;43.99;;
66459;Laerm;56836;52.570;4.692;2022-07-12T01:01:41;42.92;41.82;43.68;;
66459;Laerm;56836;52.570;4.692;2022-07-12T01:01:52;42.98;41.84;43.80;;
66459;Laerm;56836;52.570;4.692;2022-07-12T01:02:13;43.41;42.22;44.66;;
66459;Laerm;56836;52.570;4.692;2022-07-12T01:02:24;50.59;43.61;56.82;;
66459;Laerm;56836;52.570;4.692;2022-07-12T01:02:35;52.36;47.33;56.61;;
66459;Laerm;56836;52.570;4.692;2022-07-12T01:02:46;46.51;43.93;51.04;;
66459;Laerm;56836;52.570;4.692;2022-07-12T01:02:57;44.33;42.96;46.21;;
66459;Laerm;56836;52.570;4.692;2022-07-12T01:03:08;43.28;42.30;44.34;;
66459;Laerm;56836;52.570;4.692;2022-07-12T01:03:18;42.98;41.99;43.82;;
66459;Laerm;56836;52.570;4.692;2022-07-12T01:03:29;42.94;42.15;43.75;;
66459;Laerm;56836;52.570;4.692;2022-07-12T01:03:47;42.90;42.06;44.06;;
66459;Laerm;56836;52.570;4.692;2022-07-12T01:03:58;42.95;41.99;43.95;;
66459;Laerm;56836;52.570;4.692;2022-07-12T01:04:09;43.05;42.15;44.21;;
66459;Laerm;56836;52.570;4.692;2022-07-12T01:04:19;43.04;42.25;44.24;;
66459;Laerm;56836;52.570;4.692;2022-07-12T01:05:06;54.53;47.16;60.63;;
66459;Laerm;56836;52.570;4.692;2022-07-12T01:05:17;46.86;43.14;51.38;;
66459;Laerm;56836;52.570;4.692;2022-07-12T01:05:28;44.57;43.00;47.19;;
66459;Laerm;56836;52.570;4.692;2022-07-12T01:05:38;50.92;42.83;59.00;;
66459;Laerm;56836;52.570;4.692;2022-07-12T01:06:31;42.93;41.81;43.86;;
66459;Laerm;56836;52.570;4.692;2022-07-12T01:06:42;42.96;42.24;43.90;;
66459;Laerm;56836;52.570;4.692;2022-07-12T01:06:53;42.97;41.93;43.78;;
66459;Laerm;56836;52.570;4.692;2022-07-12T01:07:03;48.33;42.66;56.76;;
66459;Laerm;56836;52.570;4.692;2022-07-12T01:07:15;43.72;42.24;48.73;;
66459;Laerm;56836;52.570;4.692;2022-07-12T01:07:25;42.99;41.91;45.93;;
66459;Laerm;56836;52.570;4.692;2022-07-12T01:07:36;42.98;41.78;43.93;;
66459;Laerm;56836;52.570;4.692;2022-07-12T01:07:47;51.04;42.46;60.54;;
66459;Laerm;56836;52.570;4.692;2022-07-12T01:07:58;44.18;42.67;46.99;;
66459;Laerm;56836;52.570;4.692;2022-07-12T01:08:11;53.56;42.97;63.90;;
66459;Laerm;56836;52.570;4.692;2022-07-12T01:08:21;43.11;41.80;44.60;;
66459;Laerm;56836;52.570;4.692;2022-07-12T01:08:33;43.12;42.24;44.16;;
66459;Laerm;56836;52.570;4.692;2022-07-12T01:08:44;43.06;42.12;44.04;;
66459;Laerm;56836;52.570;4.692;2022-07-12T01:08:55;43.05;42.17;43.89;;
66459;Laerm;56836;52.570;4.692;2022-07-12T01:09:25;43.04;41.98;43.91;;
66459;Laerm;56836;52.570;4.692;2022-07-12T01:09:35;43.02;42.00;43.95;;
66459;Laerm;56836;52.570;4.692;2022-07-12T01:09:46;42.96;42.29;43.78;;
66459;Laerm;56836;52.570;4.692;2022-07-12T01:09:56;43.01;42.16;43.71;;
66459;Laerm;56836;52.570;4.692;2022-07-12T01:10:07;43.03;41.90;43.90;;
66459;Laerm;56836;52.570;4.692;2022-07-12T01:10:18;43.01;42.07;44.28;;
66459;Laerm;56836;52.570;4.692;2022-07-12T01:10:29;43.11;42.15;44.61;;
66459;Laerm;56836;52.570;4.692;2022-07-12T01:10:41;47.43;42.96;54.15;;
66459;Laerm;56836;52.570;4.692;2022-07-12T01:10:53;43.11;42.08;44.18;;
66459;Laerm;56836;52.570;4.692;2022-07-12T01:11:04;42.95;41.97;43.72;;
66459;Laerm;56836;52.570;4.692;2022-07-12T01:11:16;42.93;42.10;43.78;;
66459;Laerm;56836;52.570;4.692;2022-07-12T01:11:26;42.92;42.02;43.80;;
66459;Laerm;56836;52.570;4.692;2022-07-12T01:11:37;42.94;41.96;44.78;;
66459;Laerm;56836;52.570;4.692;2022-07-12T01:11:48;42.91;42.18;43.89;;
66459;Laerm;56836;52.570;4.692;2022-07-12T01:11:58;42.94;42.04;43.69;;
66459;Laerm;56836;52.570;4.692;2022-07-12T01:12:17;42.90;41.99;43.80;;